createdAt,value
2018-05-31T00:00:30.589Z,65.70
2018-05-31T00:02:58.070Z,65.80
2018-05-31T00:05:26.353Z,66.30
2018-05-31T00:07:54.594Z,66.50
2018-05-31T00:10:22.871Z,67.10
2018-05-31T00:12:51.889Z,66.80
2018-05-31T00:15:20.141Z,66.70
2018-05-31T00:17:48.423Z,67.00
2018-05-31T00:20:15.912Z,67.00
2018-05-31T00:22:43.425Z,67.40
2018-05-31T00:25:10.938Z,67.20
2018-05-31T00:27:39.171Z,67.80
2018-05-31T00:30:06.649Z,67.80
2018-05-31T00:32:34.926Z,68.10
2018-05-31T00:35:03.171Z,67.90
2018-05-31T00:37:30.657Z,67.90
2018-05-31T00:39:58.897Z,67.50
2018-05-31T00:42:26.413Z,67.40
2018-05-31T00:44:53.890Z,67.60
2018-05-31T00:47:21.386Z,68.00
2018-05-31T00:49:48.856Z,67.90
2018-05-31T00:52:16.382Z,67.90
2018-05-31T00:54:43.849Z,67.60
2018-05-31T00:57:11.313Z,67.90
2018-05-31T00:59:38.805Z,68.40
2018-05-31T01:02:07.065Z,68.70
2018-05-31T01:04:34.564Z,68.70
2018-05-31T01:07:02.034Z,68.40
2018-05-31T01:09:29.538Z,68.50
2018-05-31T01:11:57.826Z,68.10
2018-05-31T01:14:25.285Z,68.10
2018-05-31T01:16:52.773Z,68.40
2018-05-31T01:19:20.265Z,68.00
2018-05-31T01:21:47.771Z,68.10
2018-05-31T01:24:16.027Z,67.80
2018-05-31T01:26:43.656Z,67.70
2018-05-31T01:29:11.137Z,68.10
2018-05-31T01:31:38.634Z,68.30
2018-05-31T01:34:06.882Z,68.30
2018-05-31T01:36:35.897Z,68.10
2018-05-31T01:39:04.138Z,67.80
2018-05-31T01:41:31.645Z,67.80
2018-05-31T01:43:59.155Z,68.20
2018-05-31T01:46:26.665Z,68.10
2018-05-31T01:48:54.922Z,68.00
2018-05-31T01:51:22.426Z,67.90
2018-05-31T01:53:49.921Z,67.50
2018-05-31T01:56:18.346Z,67.60
2018-05-31T01:58:45.852Z,67.60
2018-05-31T02:01:13.369Z,67.30
2018-05-31T02:03:40.840Z,67.90
2018-05-31T02:06:08.325Z,67.70
2018-05-31T02:08:35.812Z,68.00
2018-05-31T02:11:03.317Z,67.50
2018-05-31T02:13:30.812Z,67.70
2018-05-31T02:15:59.784Z,68.00
2018-05-31T02:18:27.289Z,68.00
2018-05-31T02:20:55.522Z,67.60
2018-05-31T02:23:23.025Z,67.60
2018-05-31T02:25:51.286Z,67.30
2018-05-31T02:28:18.793Z,67.30
2018-05-31T02:30:46.261Z,67.20
2018-05-31T02:33:13.761Z,67.20
2018-05-31T02:35:41.245Z,67.70
2018-05-31T02:38:08.765Z,67.50
2018-05-31T02:40:36.243Z,67.70
2018-05-31T02:43:03.734Z,67.90
2018-05-31T02:45:31.256Z,67.80
2018-05-31T02:47:59.526Z,68.00
2018-05-31T02:50:28.529Z,67.80
2018-05-31T02:52:56.037Z,67.80
2018-05-31T02:55:23.536Z,67.70
2018-05-31T02:57:51.005Z,68.00
2018-05-31T03:00:18.512Z,67.80
2018-05-31T03:02:46.002Z,67.90
2018-05-31T03:05:13.494Z,68.10
2018-05-31T03:07:41.769Z,67.50
2018-05-31T03:10:09.267Z,67.50
2018-05-31T03:12:36.758Z,67.60
2018-05-31T03:15:04.262Z,67.40
2018-05-31T03:17:31.734Z,67.90
2018-05-31T03:19:59.235Z,68.00
2018-05-31T03:22:26.705Z,67.70
2018-05-31T03:24:54.968Z,67.90
2018-05-31T03:27:22.458Z,67.90
2018-05-31T03:29:50.697Z,67.50
2018-05-31T03:32:18.225Z,67.50
2018-05-31T03:34:45.706Z,67.30
2018-05-31T03:37:13.229Z,67.60
2018-05-31T03:39:41.500Z,67.40
2018-05-31T03:42:09.007Z,67.50
2018-05-31T03:44:36.504Z,67.40
2018-05-31T03:47:04.777Z,67.50
2018-05-31T03:49:33.019Z,67.30
2018-05-31T03:52:00.537Z,67.30
2018-05-31T03:54:28.041Z,67.70
2018-05-31T03:56:55.514Z,68.10
2018-05-31T03:59:23.793Z,68.20
2018-05-31T04:01:52.058Z,68.20
2018-05-31T04:04:19.573Z,68.10
2018-05-31T04:06:47.710Z,67.90
2018-05-31T04:09:15.981Z,68.10
2018-05-31T04:11:44.357Z,68.10
2018-05-31T04:14:12.628Z,68.10
2018-05-31T04:16:40.113Z,68.00
2018-05-31T04:19:08.378Z,68.40
2018-05-31T04:21:36.625Z,68.80
2018-05-31T04:24:04.143Z,68.80
2018-05-31T04:26:31.636Z,68.70
2018-05-31T04:28:59.166Z,68.90
2018-05-31T04:31:26.639Z,69.00
2018-05-31T04:33:54.137Z,69.00
2018-05-31T04:36:21.617Z,69.00
2018-05-31T04:38:49.881Z,69.10
2018-05-31T04:41:18.154Z,69.00
2018-05-31T04:43:45.657Z,69.00
2018-05-31T04:46:13.174Z,69.10
2018-05-31T04:48:40.669Z,69.00
2018-05-31T04:51:08.156Z,69.10
2018-05-31T04:53:35.691Z,69.10
2018-05-31T04:56:03.917Z,69.40
2018-05-31T04:58:31.398Z,69.40
2018-05-31T05:00:59.650Z,69.50
2018-05-31T05:03:27.114Z,69.40
2018-05-31T05:05:56.121Z,69.60
2018-05-31T05:08:23.605Z,69.60
2018-05-31T05:10:51.089Z,69.70
2018-05-31T05:13:18.578Z,69.50
2018-05-31T05:15:47.574Z,69.80
2018-05-31T05:18:15.108Z,69.80
2018-05-31T05:20:42.603Z,69.70
2018-05-31T05:23:11.618Z,69.70
2018-05-31T05:25:40.109Z,69.70
2018-05-31T05:28:07.619Z,69.70
2018-05-31T05:30:35.109Z,69.70
2018-05-31T05:33:03.532Z,69.80
2018-05-31T05:35:31.066Z,69.80
2018-05-31T05:37:58.924Z,70.00
2018-05-31T05:40:27.185Z,69.80
2018-05-31T05:42:55.531Z,70.20
2018-05-31T05:45:23.017Z,70.20
2018-05-31T05:47:50.558Z,70.10
2018-05-31T05:50:18.043Z,70.10
2018-05-31T05:52:46.214Z,70.60
2018-05-31T05:55:13.785Z,70.20
2018-05-31T05:57:42.035Z,71.00
2018-05-31T06:00:11.033Z,70.20
2018-05-31T06:02:40.013Z,69.20
2018-05-31T06:05:07.511Z,69.20
2018-05-31T06:07:35.822Z,68.70
2018-05-31T06:10:03.609Z,68.70
2018-05-31T06:12:31.064Z,68.40
2018-05-31T06:14:58.627Z,69.40
2018-05-31T06:17:26.094Z,69.90
2018-05-31T06:19:53.648Z,67.60
2018-05-31T06:22:21.241Z,67.80
2018-05-31T06:24:49.508Z,66.40
2018-05-31T06:27:17.468Z,66.40
2018-05-31T06:29:45.108Z,66.60
2018-05-31T06:32:12.666Z,66.30
2018-05-31T06:34:40.170Z,65.80
2018-05-31T06:37:08.448Z,64.70
2018-05-31T06:39:36.696Z,64.70
2018-05-31T06:42:04.193Z,65.30
2018-05-31T06:44:32.663Z,61.70
2018-05-31T06:47:00.158Z,61.70
2018-05-31T06:49:27.657Z,62.90
2018-05-31T06:51:55.168Z,63.50
2018-05-31T06:54:22.712Z,63.70
2018-05-31T06:56:50.161Z,62.90
2018-05-31T06:59:18.423Z,63.50
2018-05-31T07:01:45.942Z,63.50
2018-05-31T07:04:13.456Z,63.60
2018-05-31T07:06:40.917Z,63.30
2018-05-31T07:09:09.187Z,61.30
2018-05-31T07:11:36.641Z,61.30
2018-05-31T07:14:04.139Z,59.70
2018-05-31T07:16:31.625Z,62.40
2018-05-31T07:18:59.153Z,61.60
2018-05-31T07:21:26.621Z,61.60
2018-05-31T07:23:54.137Z,61.90
2018-05-31T07:26:21.601Z,61.40
2018-05-31T07:28:49.882Z,60.60
2018-05-31T07:31:18.133Z,60.80
2018-05-31T07:33:45.639Z,60.90
2018-05-31T07:36:13.165Z,60.70
2018-05-31T07:38:40.632Z,59.70
2018-05-31T07:41:08.082Z,57.70
2018-05-31T07:43:35.570Z,60.30
2018-05-31T07:46:03.078Z,59.10
2018-05-31T07:48:30.536Z,55.40
2018-05-31T07:50:58.037Z,57.90
2018-05-31T07:53:26.297Z,57.20
2018-05-31T07:55:54.558Z,56.40
2018-05-31T07:58:22.079Z,56.40
2018-05-31T08:00:49.528Z,55.80
2018-05-31T08:03:16.995Z,57.20
2018-05-31T08:05:44.551Z,55.70
2018-05-31T08:08:11.973Z,60.20
2018-05-31T08:10:40.260Z,56.90
2018-05-31T08:13:08.507Z,58.50
2018-05-31T08:15:36.785Z,55.70
2018-05-31T08:18:04.242Z,55.70
2018-05-31T08:20:31.757Z,55.10
2018-05-31T08:22:59.226Z,55.40
2018-05-31T08:25:26.727Z,56.10
2018-05-31T08:27:54.985Z,55.30
2018-05-31T08:30:22.510Z,55.50
2018-05-31T08:32:50.018Z,56.80
2018-05-31T08:35:18.308Z,56.30
2018-05-31T08:37:46.561Z,56.80
2018-05-31T08:40:14.072Z,56.60
2018-05-31T08:42:41.590Z,59.90
2018-05-31T08:45:09.872Z,54.60
2018-05-31T08:47:38.892Z,53.30
2018-05-31T08:50:06.371Z,53.30
2018-05-31T08:52:33.885Z,53.70
2018-05-31T08:55:01.383Z,53.40
2018-05-31T08:57:28.868Z,54.70
2018-05-31T08:59:56.366Z,51.80
2018-05-31T09:02:24.630Z,54.30
2018-05-31T09:04:52.897Z,52.70
2018-05-31T09:07:20.410Z,52.70
2018-05-31T09:09:47.893Z,52.20
2018-05-31T09:12:15.385Z,53.40
2018-05-31T09:14:44.420Z,54.10
2018-05-31T09:17:11.905Z,54.10
2018-05-31T09:19:39.420Z,54.00
2018-05-31T09:22:07.649Z,53.30
2018-05-31T09:24:35.114Z,53.10
2018-05-31T09:27:02.599Z,53.70
2018-05-31T09:29:30.882Z,54.50
2018-05-31T09:31:59.179Z,54.90
2018-05-31T09:34:26.678Z,54.90
2018-05-31T09:36:54.199Z,53.00
2018-05-31T09:39:21.666Z,53.50
2018-05-31T09:41:49.157Z,54.70
2018-05-31T09:44:16.638Z,54.50
2018-05-31T09:46:44.168Z,55.80
2018-05-31T09:49:11.642Z,54.90
2018-05-31T09:51:39.165Z,53.60
2018-05-31T09:54:06.659Z,56.10
2018-05-31T09:56:34.917Z,56.60
2018-05-31T09:59:02.414Z,56.60
2018-05-31T10:01:29.930Z,54.70
2018-05-31T10:03:57.448Z,58.50
2018-05-31T10:06:25.717Z,57.30
2018-05-31T10:08:53.988Z,55.30
2018-05-31T10:11:22.233Z,56.60
2018-05-31T10:13:49.734Z,56.50
2018-05-31T10:16:17.953Z,55.50
2018-05-31T10:18:45.454Z,55.50
2018-05-31T10:21:12.945Z,54.90
2018-05-31T10:23:40.437Z,54.80
2018-05-31T10:26:07.918Z,54.30
2018-05-31T10:28:35.413Z,55.50
2018-05-31T10:31:02.888Z,56.30
2018-05-31T10:33:30.396Z,54.90
2018-05-31T10:35:57.857Z,54.10
2018-05-31T10:38:25.363Z,55.70
2018-05-31T10:40:52.924Z,54.90
2018-05-31T10:43:21.154Z,53.60
2018-05-31T10:45:48.627Z,53.50
2018-05-31T10:48:16.896Z,53.00
2018-05-31T10:50:45.864Z,53.30
2018-05-31T10:53:13.373Z,53.30
2018-05-31T10:55:40.875Z,54.80
2018-05-31T10:58:08.342Z,55.20
2018-05-31T11:00:35.848Z,54.00
2018-05-31T11:03:03.350Z,54.30
2018-05-31T11:05:30.878Z,54.10
2018-05-31T11:07:58.340Z,54.10
2018-05-31T11:10:25.827Z,53.30
2018-05-31T11:12:53.357Z,54.10
2018-05-31T11:15:20.899Z,53.50
2018-05-31T11:17:49.149Z,53.30
2018-05-31T11:20:16.622Z,53.40
2018-05-31T11:22:44.892Z,53.00
2018-05-31T11:25:13.128Z,53.10
2018-05-31T11:27:40.630Z,53.00
2018-05-31T11:30:08.886Z,52.90
2018-05-31T11:32:36.396Z,52.90
2018-05-31T11:35:03.876Z,51.50
2018-05-31T11:37:31.369Z,54.20
2018-05-31T11:39:58.839Z,52.00
2018-05-31T11:42:27.118Z,51.30
2018-05-31T11:44:55.349Z,52.00
2018-05-31T11:47:22.856Z,52.00
2018-05-31T11:49:51.077Z,51.10
2018-05-31T11:52:18.605Z,51.10
2018-05-31T11:54:46.090Z,51.80
2018-05-31T11:57:13.607Z,52.90
2018-05-31T11:59:41.856Z,51.40
2018-05-31T12:02:09.331Z,51.40
2018-05-31T12:04:36.838Z,52.20
2018-05-31T12:07:04.302Z,52.10
2018-05-31T12:09:31.806Z,52.00
2018-05-31T12:11:59.286Z,51.80
2018-05-31T12:14:27.546Z,53.20
2018-05-31T12:16:55.781Z,50.70
2018-05-31T12:19:23.317Z,50.70
2018-05-31T12:21:50.785Z,50.30
2018-05-31T12:24:18.281Z,52.70
2018-05-31T12:26:45.805Z,51.20
2018-05-31T12:29:13.548Z,50.60
2018-05-31T12:31:41.029Z,51.70
2018-05-31T12:34:08.523Z,52.00
2018-05-31T12:36:36.811Z,51.30
2018-05-31T12:39:04.302Z,51.30
2018-05-31T12:41:31.829Z,53.80
2018-05-31T12:43:59.334Z,54.30
2018-05-31T12:46:27.279Z,54.10
2018-05-31T12:48:55.549Z,53.10
2018-05-31T12:51:23.845Z,50.20
2018-05-31T12:53:51.323Z,50.10
2018-05-31T12:56:19.062Z,51.70
2018-05-31T12:58:46.826Z,52.90
2018-05-31T13:01:15.142Z,50.60
2018-05-31T13:03:42.690Z,50.60
2018-05-31T13:06:10.666Z,52.80
2018-05-31T13:08:38.187Z,52.00
2018-05-31T13:11:06.438Z,50.40
2018-05-31T13:13:34.001Z,50.40
2018-05-31T13:16:01.463Z,52.20
2018-05-31T13:18:29.312Z,53.60
2018-05-31T13:20:56.815Z,52.90
2018-05-31T13:23:25.113Z,52.50
2018-05-31T13:25:52.646Z,52.30
2018-05-31T13:28:20.913Z,51.20
2018-05-31T13:30:49.301Z,51.10
2018-05-31T13:33:17.588Z,52.20
2018-05-31T13:35:45.067Z,52.20
2018-05-31T13:38:12.581Z,49.40
2018-05-31T13:40:40.833Z,50.90
2018-05-31T13:43:08.379Z,50.70
2018-05-31T13:45:35.870Z,52.00
2018-05-31T13:48:03.343Z,52.80
2018-05-31T13:50:31.654Z,52.80
2018-05-31T13:52:59.117Z,52.80
2018-05-31T13:55:26.854Z,52.10
2018-05-31T13:57:55.205Z,52.30
2018-05-31T14:00:22.811Z,52.30
2018-05-31T14:02:50.366Z,52.60
2018-05-31T14:05:17.877Z,52.70
2018-05-31T14:07:45.367Z,52.40
2018-05-31T14:10:12.869Z,52.70
2018-05-31T14:12:40.362Z,53.40
2018-05-31T14:15:07.837Z,52.20
2018-05-31T14:17:35.337Z,52.90
2018-05-31T14:20:02.842Z,54.10
2018-05-31T14:22:30.353Z,52.90
2018-05-31T14:24:57.849Z,52.50
2018-05-31T14:27:25.354Z,52.30
2018-05-31T14:29:52.828Z,52.80
2018-05-31T14:32:20.332Z,52.90
2018-05-31T14:34:47.798Z,53.80
2018-05-31T14:37:16.057Z,54.30
2018-05-31T14:39:43.562Z,54.30
2018-05-31T14:42:11.055Z,53.20
2018-05-31T14:44:38.521Z,53.50
2018-05-31T14:47:06.018Z,54.40
2018-05-31T14:49:34.250Z,53.90
2018-05-31T14:52:01.765Z,54.00
2018-05-31T14:54:29.290Z,53.90
2018-05-31T14:56:56.786Z,53.70
2018-05-31T14:59:24.274Z,53.80
2018-05-31T15:01:51.776Z,53.80
2018-05-31T15:04:20.039Z,54.60
2018-05-31T15:06:47.544Z,54.50
2018-05-31T15:09:15.058Z,52.90
2018-05-31T15:11:42.563Z,52.20
2018-05-31T15:14:10.061Z,52.10
2018-05-31T15:16:37.557Z,54.00
2018-05-31T15:19:05.806Z,53.90
2018-05-31T15:21:34.826Z,53.00
2018-05-31T15:24:03.092Z,54.90
2018-05-31T15:26:30.600Z,55.00
2018-05-31T15:28:58.101Z,53.40
2018-05-31T15:31:26.448Z,53.60
2018-05-31T15:33:53.927Z,53.60
2018-05-31T15:36:21.433Z,54.10
2018-05-31T15:38:48.956Z,54.00
2018-05-31T15:41:17.976Z,52.20
2018-05-31T15:43:46.233Z,54.10
2018-05-31T15:46:13.750Z,54.10
2018-05-31T15:48:41.245Z,53.10
2018-05-31T15:51:08.719Z,53.20
2018-05-31T15:53:36.997Z,54.80
2018-05-31T15:56:05.246Z,53.70
2018-05-31T15:58:32.734Z,53.70
2018-05-31T16:01:00.989Z,50.70
2018-05-31T16:03:29.246Z,51.00
2018-05-31T16:05:56.765Z,50.80
2018-05-31T16:08:24.261Z,51.70
2018-05-31T16:10:51.748Z,52.00
2018-05-31T16:13:19.252Z,52.20
2018-05-31T16:15:46.729Z,52.10
2018-05-31T16:18:14.226Z,51.90
2018-05-31T16:20:41.733Z,50.90
2018-05-31T16:23:09.241Z,51.20
2018-05-31T16:25:39.657Z,51.80
2018-05-31T16:28:07.168Z,51.50
2018-05-31T16:30:34.689Z,52.00
2018-05-31T16:33:02.197Z,51.70
2018-05-31T16:35:29.675Z,52.20
2018-05-31T16:37:57.157Z,52.20
2018-05-31T16:40:24.663Z,52.40
2018-05-31T16:42:52.137Z,52.50
2018-05-31T16:45:20.233Z,53.90
2018-05-31T16:47:47.774Z,56.60
2018-05-31T16:50:15.335Z,58.00
2018-05-31T16:52:43.526Z,60.10
2018-05-31T16:55:11.047Z,60.10
2018-05-31T16:57:38.697Z,60.30
2018-05-31T17:00:06.437Z,60.80
2018-05-31T17:02:33.910Z,61.10
2018-05-31T17:05:02.473Z,61.10
2018-05-31T17:07:29.957Z,61.10
2018-05-31T17:09:58.231Z,61.40
2018-05-31T17:12:26.537Z,62.30
2018-05-31T17:14:55.430Z,62.40
2018-05-31T17:17:22.925Z,62.40
2018-05-31T17:19:50.531Z,62.70
2018-05-31T17:22:18.840Z,64.00
2018-05-31T17:24:46.333Z,64.00
2018-05-31T17:27:15.555Z,64.50
2018-05-31T17:29:43.797Z,64.00
2018-05-31T17:32:11.322Z,64.00
2018-05-31T17:34:38.970Z,63.60
2018-05-31T17:37:07.026Z,63.30
2018-05-31T17:39:35.284Z,63.50
2018-05-31T17:42:02.809Z,63.40
2018-05-31T17:44:30.312Z,63.70
2018-05-31T17:46:58.933Z,63.20
2018-05-31T17:49:27.138Z,63.20
2018-05-31T17:51:54.642Z,62.90
2018-05-31T17:54:22.973Z,63.80
2018-05-31T17:56:50.736Z,63.80
2018-05-31T17:59:18.537Z,64.00
2018-05-31T18:01:46.053Z,64.40
2018-05-31T18:04:13.545Z,64.90
2018-05-31T18:06:41.062Z,65.00
2018-05-31T18:09:08.570Z,65.10
2018-05-31T18:11:36.999Z,65.20
2018-05-31T18:14:05.001Z,65.60
2018-05-31T18:16:32.517Z,65.70
2018-05-31T18:19:01.384Z,65.70
2018-05-31T18:21:29.642Z,66.00
2018-05-31T18:23:57.337Z,66.00
2018-05-31T18:26:25.026Z,66.20
2018-05-31T18:28:52.513Z,66.50
2018-05-31T18:31:20.018Z,66.80
2018-05-31T18:33:47.586Z,67.00
2018-05-31T18:36:15.061Z,66.80
2018-05-31T18:38:42.598Z,66.80
2018-05-31T18:41:10.087Z,67.20
2018-05-31T18:43:37.850Z,66.80
2018-05-31T18:46:05.429Z,66.60
2018-05-31T18:48:32.929Z,66.40
2018-05-31T18:51:01.508Z,66.60
2018-05-31T18:53:29.741Z,66.90
2018-05-31T18:55:57.505Z,66.80
2018-05-31T18:58:24.999Z,66.90
2018-05-31T19:00:53.289Z,67.30
2018-05-31T19:03:24.430Z,67.50
2018-05-31T19:05:52.714Z,67.30
2018-05-31T19:08:21.601Z,67.60
2018-05-31T19:10:51.033Z,67.80
2018-05-31T19:13:24.316Z,67.70
2018-05-31T19:15:52.036Z,67.70
2018-05-31T19:21:30.528Z,68.00
2018-05-31T19:24:12.897Z,67.80
2018-05-31T19:26:41.157Z,68.10
2018-05-31T19:29:08.766Z,68.10
2018-05-31T19:31:36.269Z,68.10
2018-05-31T19:34:04.046Z,67.50
2018-05-31T19:36:37.344Z,67.50
2018-05-31T19:39:05.736Z,66.90
2018-05-31T19:41:33.985Z,65.20
2018-05-31T19:44:07.282Z,65.20
2018-05-31T19:46:34.742Z,66.90
2018-05-31T19:49:02.413Z,67.40
2018-05-31T19:51:35.579Z,67.50
2018-05-31T19:54:03.093Z,67.50
2018-05-31T19:56:31.484Z,68.30
2018-05-31T19:59:04.978Z,68.30
2018-05-31T20:01:38.841Z,68.60
2018-05-31T20:04:06.410Z,68.50
2018-05-31T20:06:34.150Z,68.60
2018-05-31T20:09:02.107Z,68.80
2018-05-31T20:11:29.602Z,69.00
2018-05-31T20:13:57.333Z,68.70
2018-05-31T20:16:24.838Z,68.70
2018-05-31T20:18:53.150Z,69.10
2018-05-31T20:21:20.607Z,69.10
2018-05-31T20:23:48.094Z,69.10
2018-05-31T20:26:15.613Z,69.30
2018-05-31T20:28:43.091Z,69.20
2018-05-31T20:31:10.612Z,69.30
2018-05-31T20:33:38.871Z,62.70
2018-05-31T20:36:06.372Z,62.70
2018-05-31T20:38:33.854Z,60.00
2018-05-31T20:41:01.345Z,58.50
2018-05-31T20:43:28.813Z,55.90
2018-05-31T20:45:56.293Z,57.10
2018-05-31T20:48:24.574Z,60.90
2018-05-31T20:50:52.848Z,61.90
2018-05-31T20:53:21.084Z,63.40
2018-05-31T20:55:48.577Z,63.40
2018-05-31T20:58:16.845Z,64.90
2018-05-31T21:00:45.137Z,66.00
2018-05-31T21:03:13.445Z,66.30
2018-05-31T21:05:40.948Z,66.30
2018-05-31T21:08:08.457Z,67.20
2018-05-31T21:10:35.929Z,67.30
2018-05-31T21:13:03.435Z,67.70
2018-05-31T21:15:31.689Z,67.60
2018-05-31T21:17:59.205Z,67.60
2018-05-31T21:20:26.804Z,67.60
2018-05-31T21:22:54.373Z,67.30
2018-05-31T21:25:22.569Z,68.10
2018-05-31T21:27:50.818Z,68.50
2018-05-31T21:30:18.313Z,68.50
2018-05-31T21:32:46.568Z,68.80
2018-05-31T21:35:14.073Z,68.70
2018-05-31T21:37:41.561Z,68.60
2018-05-31T21:40:09.063Z,68.00
2018-05-31T21:42:37.304Z,67.40
2018-05-31T21:45:04.817Z,67.40
2018-05-31T21:47:32.297Z,67.00
2018-05-31T21:49:59.807Z,66.70
2018-05-31T21:52:27.314Z,68.10
2018-05-31T21:54:54.825Z,68.60
2018-05-31T21:57:23.054Z,69.00
2018-05-31T21:59:50.554Z,68.90
2018-05-31T22:02:18.054Z,68.60
2018-05-31T22:04:45.533Z,68.80
2018-05-31T22:07:13.028Z,68.90
2018-05-31T22:09:40.510Z,68.80
2018-05-31T22:12:08.778Z,69.30
2018-05-31T22:14:37.015Z,69.30
2018-05-31T22:17:04.554Z,69.20
2018-05-31T22:19:32.021Z,69.40
2018-05-31T22:21:59.527Z,69.40
2018-05-31T22:24:27.771Z,69.40
2018-05-31T22:26:55.269Z,69.30
2018-05-31T22:29:23.517Z,69.10
2018-05-31T22:31:51.027Z,69.10
2018-05-31T22:34:18.496Z,69.30
2018-05-31T22:36:46.008Z,69.40
2018-05-31T22:39:13.469Z,69.50
2018-05-31T22:41:41.747Z,69.00
2018-05-31T22:44:10.006Z,69.30
2018-05-31T22:46:37.514Z,69.20
2018-05-31T22:49:05.033Z,67.50
2018-05-31T22:51:32.514Z,67.50
2018-05-31T22:54:00.785Z,69.00
2018-05-31T22:56:29.044Z,69.40
2018-05-31T22:58:56.654Z,69.40
2018-05-31T23:01:24.113Z,69.60
2018-05-31T23:03:51.619Z,69.30
2018-05-31T23:06:19.854Z,68.40
2018-05-31T23:08:47.353Z,68.30
2018-05-31T23:11:16.361Z,68.30
2018-05-31T23:13:44.648Z,68.60
2018-05-31T23:16:12.880Z,68.80
2018-05-31T23:18:40.351Z,68.80
2018-05-31T23:21:09.363Z,69.50
2018-05-31T23:23:36.845Z,69.50
2018-05-31T23:26:05.089Z,70.00
2018-05-31T23:28:32.565Z,69.90
2018-05-31T23:31:00.820Z,70.00
2018-05-31T23:33:28.876Z,70.00
2018-05-31T23:35:56.349Z,70.10
2018-05-31T23:38:25.329Z,68.90
2018-05-31T23:40:52.829Z,68.90
2018-05-31T23:43:21.068Z,67.60
2018-05-31T23:45:48.597Z,67.60
2018-05-31T23:48:16.104Z,68.70
2018-05-31T23:50:43.604Z,68.30
2018-05-31T23:53:11.098Z,68.70
2018-05-31T23:55:38.629Z,68.40
2018-05-31T23:58:06.174Z,68.00
